sensor_id;sensor_type;location;lat;lon;timestamp;P1;durP1;ratioP1;P2;durP2;ratioP2
9461;SDS011;4769;42.660;23.262;2023-06-22T00:00:32;7.50;;;6.85;;
9461;SDS011;4769;42.660;23.262;2023-06-22T00:02:57;7.45;;;6.85;;
9461;SDS011;4769;42.660;23.262;2023-06-22T00:05:29;7.95;;;7.25;;
9461;SDS011;4769;42.660;23.262;2023-06-22T00:07:57;7.45;;;6.75;;
9461;SDS011;4769;42.660;23.262;2023-06-22T00:10:48;6.97;;;6.30;;
9461;SDS011;4769;42.660;23.262;2023-06-22T00:13:22;7.13;;;6.57;;
9461;SDS011;4769;42.660;23.262;2023-06-22T00:16:02;6.63;;;6.07;;
9461;SDS011;4769;42.660;23.262;2023-06-22T00:18:41;7.25;;;6.65;;
9461;SDS011;4769;42.660;23.262;2023-06-22T00:21:14;6.97;;;6.30;;
9461;SDS011;4769;42.660;23.262;2023-06-22T00:23:49;7.75;;;6.78;;
9461;SDS011;4769;42.660;23.262;2023-06-22T00:29:17;7.93;;;7.22;;
9461;SDS011;4769;42.660;23.262;2023-06-22T00:34:26;8.32;;;7.63;;
9461;SDS011;4769;42.660;23.262;2023-06-22T00:36:53;9.20;;;8.40;;
9461;SDS011;4769;42.660;23.262;2023-06-22T00:39:27;9.27;;;8.07;;
9461;SDS011;4769;42.660;23.262;2023-06-22T00:41:55;9.70;;;8.30;;
9461;SDS011;4769;42.660;23.262;2023-06-22T00:44:25;8.95;;;8.05;;
9461;SDS011;4769;42.660;23.262;2023-06-22T00:46:54;8.65;;;7.75;;
9461;SDS011;4769;42.660;23.262;2023-06-22T00:49:25;8.60;;;7.78;;
9461;SDS011;4769;42.660;23.262;2023-06-22T00:52:24;8.27;;;7.40;;
9461;SDS011;4769;42.660;23.262;2023-06-22T00:55:04;8.27;;;7.45;;
9461;SDS011;4769;42.660;23.262;2023-06-22T00:57:45;9.38;;;8.00;;
9461;SDS011;4769;42.660;23.262;2023-06-22T01:00:21;9.07;;;8.27;;
9461;SDS011;4769;42.660;23.262;2023-06-22T01:02:52;9.32;;;8.25;;
9461;SDS011;4769;42.660;23.262;2023-06-22T01:05:21;9.65;;;8.52;;
9461;SDS011;4769;42.660;23.262;2023-06-22T01:07:56;9.57;;;8.68;;
9461;SDS011;4769;42.660;23.262;2023-06-22T01:10:37;11.75;;;9.10;;
9461;SDS011;4769;42.660;23.262;2023-06-22T01:13:23;11.57;;;8.68;;
9461;SDS011;4769;42.660;23.262;2023-06-22T01:16:00;10.25;;;9.23;;
9461;SDS011;4769;42.660;23.262;2023-06-22T01:18:32;10.15;;;9.10;;
9461;SDS011;4769;42.660;23.262;2023-06-22T01:21:12;10.60;;;9.48;;
9461;SDS011;4769;42.660;23.262;2023-06-22T01:24:02;13.07;;;10.20;;
9461;SDS011;4769;42.660;23.262;2023-06-22T01:26:57;10.90;;;9.38;;
9461;SDS011;4769;42.660;23.262;2023-06-22T01:29:35;10.05;;;9.15;;
9461;SDS011;4769;42.660;23.262;2023-06-22T01:32:08;10.70;;;9.38;;
9461;SDS011;4769;42.660;23.262;2023-06-22T01:34:35;10.75;;;9.32;;
9461;SDS011;4769;42.660;23.262;2023-06-22T01:37:03;10.18;;;8.30;;
9461;SDS011;4769;42.660;23.262;2023-06-22T01:39:33;11.00;;;9.80;;
9461;SDS011;4769;42.660;23.262;2023-06-22T01:42:13;14.25;;;9.90;;
9461;SDS011;4769;42.660;23.262;2023-06-22T01:44:59;12.65;;;8.57;;
9461;SDS011;4769;42.660;23.262;2023-06-22T01:47:32;10.07;;;8.52;;
9461;SDS011;4769;42.660;23.262;2023-06-22T01:50:05;9.88;;;8.93;;
9461;SDS011;4769;42.660;23.262;2023-06-22T01:52:35;9.32;;;8.30;;
9461;SDS011;4769;42.660;23.262;2023-06-22T01:55:01;10.30;;;8.70;;
9461;SDS011;4769;42.660;23.262;2023-06-22T01:57:31;8.85;;;7.97;;
9461;SDS011;4769;42.660;23.262;2023-06-22T02:00:07;8.05;;;7.35;;
9461;SDS011;4769;42.660;23.262;2023-06-22T02:02:43;9.57;;;8.63;;
9461;SDS011;4769;42.660;23.262;2023-06-22T02:05:25;12.82;;;10.10;;
9461;SDS011;4769;42.660;23.262;2023-06-22T02:07:56;10.80;;;9.40;;
9461;SDS011;4769;42.660;23.262;2023-06-22T02:10:31;10.95;;;9.20;;
9461;SDS011;4769;42.660;23.262;2023-06-22T02:12:59;11.68;;;9.10;;
9461;SDS011;4769;42.660;23.262;2023-06-22T02:15:32;10.77;;;8.05;;
9461;SDS011;4769;42.660;23.262;2023-06-22T02:18:06;10.07;;;9.18;;
9461;SDS011;4769;42.660;23.262;2023-06-22T02:20:32;10.10;;;9.20;;
9461;SDS011;4769;42.660;23.262;2023-06-22T02:23:06;9.65;;;8.65;;
9461;SDS011;4769;42.660;23.262;2023-06-22T02:25:35;10.40;;;9.50;;
9461;SDS011;4769;42.660;23.262;2023-06-22T02:28:01;10.35;;;9.35;;
9461;SDS011;4769;42.660;23.262;2023-06-22T02:30:29;10.75;;;9.63;;
9461;SDS011;4769;42.660;23.262;2023-06-22T02:33:00;9.43;;;8.63;;
9461;SDS011;4769;42.660;23.262;2023-06-22T02:38:21;10.63;;;9.63;;
9461;SDS011;4769;42.660;23.262;2023-06-22T02:40:52;10.80;;;9.70;;
9461;SDS011;4769;42.660;23.262;2023-06-22T02:43:27;10.05;;;9.10;;
9461;SDS011;4769;42.660;23.262;2023-06-22T02:45:59;10.32;;;9.43;;
9461;SDS011;4769;42.660;23.262;2023-06-22T02:48:27;10.85;;;9.90;;
9461;SDS011;4769;42.660;23.262;2023-06-22T02:51:08;12.25;;;9.27;;
9461;SDS011;4769;42.660;23.262;2023-06-22T02:53:34;14.20;;;8.93;;
9461;SDS011;4769;42.660;23.262;2023-06-22T02:56:05;9.38;;;8.45;;
9461;SDS011;4769;42.660;23.262;2023-06-22T02:58:38;10.38;;;9.30;;
9461;SDS011;4769;42.660;23.262;2023-06-22T03:01:08;10.98;;;8.93;;
9461;SDS011;4769;42.660;23.262;2023-06-22T03:03:36;11.18;;;9.27;;
9461;SDS011;4769;42.660;23.262;2023-06-22T03:06:11;11.95;;;8.60;;
9461;SDS011;4769;42.660;23.262;2023-06-22T03:08:57;11.73;;;8.73;;
9461;SDS011;4769;42.660;23.262;2023-06-22T03:11:24;9.20;;;8.40;;
9461;SDS011;4769;42.660;23.262;2023-06-22T03:13:53;11.43;;;8.48;;
9461;SDS011;4769;42.660;23.262;2023-06-22T03:16:22;9.63;;;7.95;;
9461;SDS011;4769;42.660;23.262;2023-06-22T03:18:51;8.77;;;8.00;;
9461;SDS011;4769;42.660;23.262;2023-06-22T03:21:22;10.43;;;8.35;;
9461;SDS011;4769;42.660;23.262;2023-06-22T03:23:48;10.13;;;9.05;;
9461;SDS011;4769;42.660;23.262;2023-06-22T03:29:15;11.32;;;9.10;;
9461;SDS011;4769;42.660;23.262;2023-06-22T03:35:20;13.43;;;9.27;;
9461;SDS011;4769;42.660;23.262;2023-06-22T03:37:36;9.60;;;8.60;;
9461;SDS011;4769;42.660;23.262;2023-06-22T03:43:01;10.20;;;9.20;;
9461;SDS011;4769;42.660;23.262;2023-06-22T03:45:42;11.57;;;9.57;;
9461;SDS011;4769;42.660;23.262;2023-06-22T03:48:17;10.15;;;9.15;;
9461;SDS011;4769;42.660;23.262;2023-06-22T03:50:49;13.00;;;9.30;;
9461;SDS011;4769;42.660;23.262;2023-06-22T03:53:15;13.05;;;9.93;;
9461;SDS011;4769;42.660;23.262;2023-06-22T04:35:01;14.05;;;10.85;;
9461;SDS011;4769;42.660;23.262;2023-06-22T04:40:29;14.23;;;10.63;;
9461;SDS011;4769;42.660;23.262;2023-06-22T04:42:57;13.45;;;10.73;;
9461;SDS011;4769;42.660;23.262;2023-06-22T04:45:30;12.02;;;10.82;;
9461;SDS011;4769;42.660;23.262;2023-06-22T04:47:56;11.55;;;10.45;;
9461;SDS011;4769;42.660;23.262;2023-06-22T04:50:33;15.13;;;11.32;;
9461;SDS011;4769;42.660;23.262;2023-06-22T04:56:20;10.57;;;9.48;;
9461;SDS011;4769;42.660;23.262;2023-06-22T04:59:16;11.43;;;10.20;;
9461;SDS011;4769;42.660;23.262;2023-06-22T05:01:44;13.55;;;11.48;;
9461;SDS011;4769;42.660;23.262;2023-06-22T05:04:13;13.00;;;11.70;;
9461;SDS011;4769;42.660;23.262;2023-06-22T05:06:52;13.43;;;10.77;;
9461;SDS011;4769;42.660;23.262;2023-06-22T05:09:19;11.18;;;10.15;;
9461;SDS011;4769;42.660;23.262;2023-06-22T05:14:57;15.75;;;11.05;;
9461;SDS011;4769;42.660;23.262;2023-06-22T05:17:29;12.68;;;10.77;;
9461;SDS011;4769;42.660;23.262;2023-06-22T05:20:00;16.10;;;11.82;;
9461;SDS011;4769;42.660;23.262;2023-06-22T05:22:30;13.40;;;11.27;;
9461;SDS011;4769;42.660;23.262;2023-06-22T05:24:57;12.15;;;11.00;;
9461;SDS011;4769;42.660;23.262;2023-06-22T05:27:24;12.55;;;10.80;;
9461;SDS011;4769;42.660;23.262;2023-06-22T05:30:11;12.65;;;11.13;;
9461;SDS011;4769;42.660;23.262;2023-06-22T05:32:40;13.10;;;11.07;;
9461;SDS011;4769;42.660;23.262;2023-06-22T05:35:06;12.38;;;11.00;;
9461;SDS011;4769;42.660;23.262;2023-06-22T05:37:35;13.25;;;11.73;;
9461;SDS011;4769;42.660;23.262;2023-06-22T05:40:00;18.58;;;12.48;;
9461;SDS011;4769;42.660;23.262;2023-06-22T05:42:26;14.57;;;11.40;;
9461;SDS011;4769;42.660;23.262;2023-06-22T05:44:52;16.67;;;11.00;;
9461;SDS011;4769;42.660;23.262;2023-06-22T05:47:18;12.63;;;11.18;;
9461;SDS011;4769;42.660;23.262;2023-06-22T05:49:43;13.88;;;11.60;;
9461;SDS011;4769;42.660;23.262;2023-06-22T05:52:09;16.40;;;11.40;;
9461;SDS011;4769;42.660;23.262;2023-06-22T05:54:37;15.77;;;11.85;;
9461;SDS011;4769;42.660;23.262;2023-06-22T05:57:03;14.43;;;10.98;;
9461;SDS011;4769;42.660;23.262;2023-06-22T05:59:29;19.10;;;11.18;;
9461;SDS011;4769;42.660;23.262;2023-06-22T06:01:55;13.88;;;11.10;;
9461;SDS011;4769;42.660;23.262;2023-06-22T06:04:21;16.60;;;11.55;;
9461;SDS011;4769;42.660;23.262;2023-06-22T06:06:50;14.43;;;11.30;;
9461;SDS011;4769;42.660;23.262;2023-06-22T06:09:15;16.83;;;10.93;;
9461;SDS011;4769;42.660;23.262;2023-06-22T06:11:44;12.80;;;10.73;;
9461;SDS011;4769;42.660;23.262;2023-06-22T06:14:09;12.57;;;10.93;;
9461;SDS011;4769;42.660;23.262;2023-06-22T06:16:35;16.42;;;10.77;;
9461;SDS011;4769;42.660;23.262;2023-06-22T06:19:01;17.85;;;11.63;;
9461;SDS011;4769;42.660;23.262;2023-06-22T06:21:27;13.45;;;11.45;;
9461;SDS011;4769;42.660;23.262;2023-06-22T06:23:53;12.98;;;11.38;;
9461;SDS011;4769;42.660;23.262;2023-06-22T06:26:19;15.70;;;11.00;;
9461;SDS011;4769;42.660;23.262;2023-06-22T06:28:48;13.98;;;9.93;;
9461;SDS011;4769;42.660;23.262;2023-06-22T06:31:16;14.27;;;10.57;;
9461;SDS011;4769;42.660;23.262;2023-06-22T06:33:42;10.68;;;9.73;;
9461;SDS011;4769;42.660;23.262;2023-06-22T06:36:08;12.55;;;9.80;;
9461;SDS011;4769;42.660;23.262;2023-06-22T06:38:33;11.45;;;9.77;;
9461;SDS011;4769;42.660;23.262;2023-06-22T06:40:59;11.07;;;9.40;;
9461;SDS011;4769;42.660;23.262;2023-06-22T06:43:25;12.48;;;10.25;;
9461;SDS011;4769;42.660;23.262;2023-06-22T06:45:53;11.55;;;10.30;;
9461;SDS011;4769;42.660;23.262;2023-06-22T06:48:19;60.42;;;13.90;;
9461;SDS011;4769;42.660;23.262;2023-06-22T06:50:45;20.42;;;11.02;;
9461;SDS011;4769;42.660;23.262;2023-06-22T06:53:11;21.23;;;11.23;;
9461;SDS011;4769;42.660;23.262;2023-06-22T06:55:36;15.07;;;10.18;;
9461;SDS011;4769;42.660;23.262;2023-06-22T06:58:02;15.20;;;9.73;;
9461;SDS011;4769;42.660;23.262;2023-06-22T07:00:28;11.20;;;9.93;;
9461;SDS011;4769;42.660;23.262;2023-06-22T07:02:56;12.10;;;10.80;;
9461;SDS011;4769;42.660;23.262;2023-06-22T07:05:22;10.80;;;9.75;;
9461;SDS011;4769;42.660;23.262;2023-06-22T07:07:48;12.32;;;10.27;;
9461;SDS011;4769;42.660;23.262;2023-06-22T07:10:14;13.40;;;9.63;;
9461;SDS011;4769;42.660;23.262;2023-06-22T07:12:39;11.10;;;9.75;;
9461;SDS011;4769;42.660;23.262;2023-06-22T07:15:06;12.40;;;11.20;;
9461;SDS011;4769;42.660;23.262;2023-06-22T07:17:33;12.07;;;10.20;;
9461;SDS011;4769;42.660;23.262;2023-06-22T07:20:02;15.88;;;10.57;;
9461;SDS011;4769;42.660;23.262;2023-06-22T07:22:28;12.73;;;10.93;;
9461;SDS011;4769;42.660;23.262;2023-06-22T07:24:55;15.15;;;10.65;;
9461;SDS011;4769;42.660;23.262;2023-06-22T07:27:24;13.00;;;11.10;;
9461;SDS011;4769;42.660;23.262;2023-06-22T07:29:50;12.55;;;11.32;;
9461;SDS011;4769;42.660;23.262;2023-06-22T07:32:16;11.70;;;10.60;;
9461;SDS011;4769;42.660;23.262;2023-06-22T07:34:41;13.02;;;11.63;;
9461;SDS011;4769;42.660;23.262;2023-06-22T07:37:10;15.68;;;11.77;;
9461;SDS011;4769;42.660;23.262;2023-06-22T07:39:35;14.90;;;11.50;;
9461;SDS011;4769;42.660;23.262;2023-06-22T07:42:02;14.23;;;11.48;;
9461;SDS011;4769;42.660;23.262;2023-06-22T07:44:28;15.65;;;11.35;;
9461;SDS011;4769;42.660;23.262;2023-06-22T07:46:53;11.95;;;10.93;;
9461;SDS011;4769;42.660;23.262;2023-06-22T07:49:19;12.40;;;11.05;;
9461;SDS011;4769;42.660;23.262;2023-06-22T07:51:45;12.80;;;11.60;;
9461;SDS011;4769;42.660;23.262;2023-06-22T07:54:13;12.15;;;11.00;;
9461;SDS011;4769;42.660;23.262;2023-06-22T07:56:39;12.63;;;10.73;;
9461;SDS011;4769;42.660;23.262;2023-06-22T07:59:05;14.02;;;11.10;;
9461;SDS011;4769;42.660;23.262;2023-06-22T08:01:35;12.27;;;11.10;;
9461;SDS011;4769;42.660;23.262;2023-06-22T08:04:09;13.10;;;11.68;;
9461;SDS011;4769;42.660;23.262;2023-06-22T08:06:35;12.70;;;11.40;;
9461;SDS011;4769;42.660;23.262;2023-06-22T08:09:01;15.25;;;11.57;;
9461;SDS011;4769;42.660;23.262;2023-06-22T08:11:33;13.15;;;11.07;;
9461;SDS011;4769;42.660;23.262;2023-06-22T08:14:19;11.88;;;10.88;;
9461;SDS011;4769;42.660;23.262;2023-06-22T08:16:56;17.80;;;11.82;;
9461;SDS011;4769;42.660;23.262;2023-06-22T08:19:46;13.10;;;11.75;;
9461;SDS011;4769;42.660;23.262;2023-06-22T08:22:11;15.82;;;12.43;;
9461;SDS011;4769;42.660;23.262;2023-06-22T08:24:37;12.85;;;11.63;;
9461;SDS011;4769;42.660;23.262;2023-06-22T08:36:11;12.98;;;11.27;;
9461;SDS011;4769;42.660;23.262;2023-06-22T08:38:37;12.23;;;11.13;;
9461;SDS011;4769;42.660;23.262;2023-06-22T08:41:03;12.85;;;11.35;;
9461;SDS011;4769;42.660;23.262;2023-06-22T08:43:31;11.95;;;10.75;;
9461;SDS011;4769;42.660;23.262;2023-06-22T08:45:57;12.27;;;11.18;;
9461;SDS011;4769;42.660;23.262;2023-06-22T08:48:23;11.10;;;10.13;;
9461;SDS011;4769;42.660;23.262;2023-06-22T08:50:49;11.77;;;10.68;;
9461;SDS011;4769;42.660;23.262;2023-06-22T08:53:14;11.32;;;10.02;;
9461;SDS011;4769;42.660;23.262;2023-06-22T08:55:40;10.52;;;9.55;;
9461;SDS011;4769;42.660;23.262;2023-06-22T08:58:06;11.02;;;9.90;;
9461;SDS011;4769;42.660;23.262;2023-06-22T09:00:34;11.73;;;9.55;;
9461;SDS011;4769;42.660;23.262;2023-06-22T09:03:00;10.02;;;8.82;;
9461;SDS011;4769;42.660;23.262;2023-06-22T09:05:26;10.30;;;9.27;;
9461;SDS011;4769;42.660;23.262;2023-06-22T09:07:52;10.48;;;9.57;;
9461;SDS011;4769;42.660;23.262;2023-06-22T09:10:18;10.15;;;9.15;;
9461;SDS011;4769;42.660;23.262;2023-06-22T09:15:42;9.65;;;8.65;;
9461;SDS011;4769;42.660;23.262;2023-06-22T09:18:09;9.32;;;8.63;;
9461;SDS011;4769;42.660;23.262;2023-06-22T09:20:35;9.35;;;8.52;;
9461;SDS011;4769;42.660;23.262;2023-06-22T09:23:01;9.82;;;8.82;;
9461;SDS011;4769;42.660;23.262;2023-06-22T09:25:27;9.20;;;8.40;;
9461;SDS011;4769;42.660;23.262;2023-06-22T09:27:53;10.38;;;9.35;;
9461;SDS011;4769;42.660;23.262;2023-06-22T09:30:18;9.45;;;8.55;;
9461;SDS011;4769;42.660;23.262;2023-06-22T09:32:47;10.25;;;9.30;;
9461;SDS011;4769;42.660;23.262;2023-06-22T09:35:13;10.68;;;9.77;;
9461;SDS011;4769;42.660;23.262;2023-06-22T09:37:39;9.57;;;8.75;;
9461;SDS011;4769;42.660;23.262;2023-06-22T09:40:07;8.70;;;7.90;;
9461;SDS011;4769;42.660;23.262;2023-06-22T09:42:33;9.45;;;8.73;;
9461;SDS011;4769;42.660;23.262;2023-06-22T09:44:59;9.23;;;8.25;;
9461;SDS011;4769;42.660;23.262;2023-06-22T09:47:28;14.10;;;12.05;;
9461;SDS011;4769;42.660;23.262;2023-06-22T09:52:39;8.23;;;7.53;;
9461;SDS011;4769;42.660;23.262;2023-06-22T09:55:05;8.98;;;8.07;;
9461;SDS011;4769;42.660;23.262;2023-06-22T09:57:31;9.05;;;8.25;;
9461;SDS011;4769;42.660;23.262;2023-06-22T09:59:57;12.13;;;8.50;;
9461;SDS011;4769;42.660;23.262;2023-06-22T10:02:22;8.95;;;8.15;;
9461;SDS011;4769;42.660;23.262;2023-06-22T10:04:48;11.00;;;7.80;;
9461;SDS011;4769;42.660;23.262;2023-06-22T10:07:17;8.25;;;7.55;;
9461;SDS011;4769;42.660;23.262;2023-06-22T10:09:42;8.60;;;7.80;;
9461;SDS011;4769;42.660;23.262;2023-06-22T10:12:08;8.98;;;8.13;;
9461;SDS011;4769;42.660;23.262;2023-06-22T10:14:34;8.43;;;7.47;;
9461;SDS011;4769;42.660;23.262;2023-06-22T10:17:00;9.45;;;8.27;;
9461;SDS011;4769;42.660;23.262;2023-06-22T10:19:26;10.68;;;9.68;;
9461;SDS011;4769;42.660;23.262;2023-06-22T10:21:51;8.40;;;7.80;;
9461;SDS011;4769;42.660;23.262;2023-06-22T10:24:20;8.75;;;8.00;;
9461;SDS011;4769;42.660;23.262;2023-06-22T10:26:46;8.57;;;7.88;;
9461;SDS011;4769;42.660;23.262;2023-06-22T10:29:12;8.50;;;7.70;;
9461;SDS011;4769;42.660;23.262;2023-06-22T10:31:37;8.77;;;8.02;;
9461;SDS011;4769;42.660;23.262;2023-06-22T10:34:05;9.98;;;7.88;;
9461;SDS011;4769;42.660;23.262;2023-06-22T10:36:40;9.25;;;8.35;;
9461;SDS011;4769;42.660;23.262;2023-06-22T10:39:06;14.07;;;8.95;;
9461;SDS011;4769;42.660;23.262;2023-06-22T10:41:34;10.00;;;9.10;;
9461;SDS011;4769;42.660;23.262;2023-06-22T10:44:00;10.27;;;9.45;;
9461;SDS011;4769;42.660;23.262;2023-06-22T10:46:26;10.00;;;9.07;;
9461;SDS011;4769;42.660;23.262;2023-06-22T10:48:51;11.45;;;9.20;;
9461;SDS011;4769;42.660;23.262;2023-06-22T10:51:20;9.65;;;8.73;;
9461;SDS011;4769;42.660;23.262;2023-06-22T10:53:46;9.50;;;8.70;;
9461;SDS011;4769;42.660;23.262;2023-06-22T10:56:12;10.85;;;9.60;;
9461;SDS011;4769;42.660;23.262;2023-06-22T10:58:40;10.60;;;9.65;;
9461;SDS011;4769;42.660;23.262;2023-06-22T11:01:06;11.00;;;9.75;;
9461;SDS011;4769;42.660;23.262;2023-06-22T11:03:32;10.52;;;9.40;;
9461;SDS011;4769;42.660;23.262;2023-06-22T11:05:59;11.38;;;9.43;;
9461;SDS011;4769;42.660;23.262;2023-06-22T11:08:25;10.65;;;9.65;;
9461;SDS011;4769;42.660;23.262;2023-06-22T11:10:51;10.25;;;9.25;;
9461;SDS011;4769;42.660;23.262;2023-06-22T11:13:16;10.30;;;9.40;;
9461;SDS011;4769;42.660;23.262;2023-06-22T11:18:34;10.75;;;9.68;;
9461;SDS011;4769;42.660;23.262;2023-06-22T11:21:00;9.55;;;8.73;;
9461;SDS011;4769;42.660;23.262;2023-06-22T11:23:26;10.85;;;9.90;;
9461;SDS011;4769;42.660;23.262;2023-06-22T11:25:52;10.15;;;9.35;;
9461;SDS011;4769;42.660;23.262;2023-06-22T11:28:18;9.90;;;8.95;;
9461;SDS011;4769;42.660;23.262;2023-06-22T11:30:44;9.13;;;8.43;;
9461;SDS011;4769;42.660;23.262;2023-06-22T11:33:12;9.25;;;8.55;;
9461;SDS011;4769;42.660;23.262;2023-06-22T11:35:38;10.05;;;9.18;;
9461;SDS011;4769;42.660;23.262;2023-06-22T11:38:04;10.00;;;9.18;;
9461;SDS011;4769;42.660;23.262;2023-06-22T11:40:30;9.88;;;9.18;;
9461;SDS011;4769;42.660;23.262;2023-06-22T11:43:16;10.65;;;9.65;;
9461;SDS011;4769;42.660;23.262;2023-06-22T11:45:44;10.13;;;9.23;;
9461;SDS011;4769;42.660;23.262;2023-06-22T11:48:12;10.43;;;9.50;;
9461;SDS011;4769;42.660;23.262;2023-06-22T11:50:38;11.57;;;9.90;;
9461;SDS011;4769;42.660;23.262;2023-06-22T11:53:04;11.70;;;10.10;;
9461;SDS011;4769;42.660;23.262;2023-06-22T11:55:29;12.75;;;9.38;;
9461;SDS011;4769;42.660;23.262;2023-06-22T11:57:56;10.90;;;9.77;;
9461;SDS011;4769;42.660;23.262;2023-06-22T12:00:22;10.43;;;9.45;;
9461;SDS011;4769;42.660;23.262;2023-06-22T12:02:48;10.95;;;9.98;;
9461;SDS011;4769;42.660;23.262;2023-06-22T12:05:17;10.18;;;9.38;;
9461;SDS011;4769;42.660;23.262;2023-06-22T12:07:44;10.73;;;9.63;;
9461;SDS011;4769;42.660;23.262;2023-06-22T12:10:10;11.55;;;10.43;;
9461;SDS011;4769;42.660;23.262;2023-06-22T12:12:35;11.40;;;10.27;;
9461;SDS011;4769;42.660;23.262;2023-06-22T12:15:01;11.10;;;10.10;;
9461;SDS011;4769;42.660;23.262;2023-06-22T12:17:27;11.60;;;10.55;;
9461;SDS011;4769;42.660;23.262;2023-06-22T12:19:53;11.68;;;10.45;;
9461;SDS011;4769;42.660;23.262;2023-06-22T12:22:22;13.18;;;11.63;;
9461;SDS011;4769;42.660;23.262;2023-06-22T12:24:48;12.43;;;11.27;;
9461;SDS011;4769;42.660;23.262;2023-06-22T12:27:14;11.65;;;10.50;;
9461;SDS011;4769;42.660;23.262;2023-06-22T12:29:40;12.43;;;11.07;;
9461;SDS011;4769;42.660;23.262;2023-06-22T12:32:06;11.70;;;10.15;;
9461;SDS011;4769;42.660;23.262;2023-06-22T12:34:33;11.57;;;10.18;;
9461;SDS011;4769;42.660;23.262;2023-06-22T12:36:59;11.60;;;10.30;;
9461;SDS011;4769;42.660;23.262;2023-06-22T12:39:27;14.57;;;10.40;;
9461;SDS011;4769;42.660;23.262;2023-06-22T12:41:53;15.38;;;11.80;;
9461;SDS011;4769;42.660;23.262;2023-06-22T12:44:19;17.50;;;12.05;;
9461;SDS011;4769;42.660;23.262;2023-06-22T12:46:45;14.10;;;10.80;;
9461;SDS011;4769;42.660;23.262;2023-06-22T12:49:10;15.57;;;11.48;;
9461;SDS011;4769;42.660;23.262;2023-06-22T12:51:39;14.77;;;10.20;;
9461;SDS011;4769;42.660;23.262;2023-06-22T12:54:05;11.23;;;10.07;;
9461;SDS011;4769;42.660;23.262;2023-06-22T12:56:33;10.95;;;9.70;;
9461;SDS011;4769;42.660;23.262;2023-06-22T12:58:59;13.45;;;9.98;;
9461;SDS011;4769;42.660;23.262;2023-06-22T13:01:25;11.20;;;9.18;;
9461;SDS011;4769;42.660;23.262;2023-06-22T13:03:50;12.48;;;8.93;;
9461;SDS011;4769;42.660;23.262;2023-06-22T13:06:16;10.32;;;8.73;;
9461;SDS011;4769;42.660;23.262;2023-06-22T13:08:42;9.75;;;7.10;;
9461;SDS011;4769;42.660;23.262;2023-06-22T13:11:07;9.73;;;8.38;;
9461;SDS011;4769;42.660;23.262;2023-06-22T13:13:36;9.88;;;8.55;;
9461;SDS011;4769;42.660;23.262;2023-06-22T13:16:01;8.23;;;7.30;;
9461;SDS011;4769;42.660;23.262;2023-06-22T13:18:27;9.75;;;7.75;;
9461;SDS011;4769;42.660;23.262;2023-06-22T13:20:53;8.25;;;7.28;;
9461;SDS011;4769;42.660;23.262;2023-06-22T13:23:19;10.20;;;7.28;;
9461;SDS011;4769;42.660;23.262;2023-06-22T13:25:44;8.88;;;6.63;;
9461;SDS011;4769;42.660;23.262;2023-06-22T13:28:10;9.20;;;7.13;;
9461;SDS011;4769;42.660;23.262;2023-06-22T13:30:38;7.82;;;7.07;;
9461;SDS011;4769;42.660;23.262;2023-06-22T13:33:04;8.73;;;7.28;;
9461;SDS011;4769;42.660;23.262;2023-06-22T13:35:30;9.00;;;7.55;;
9461;SDS011;4769;42.660;23.262;2023-06-22T13:37:55;9.27;;;7.35;;
9461;SDS011;4769;42.660;23.262;2023-06-22T13:40:21;8.32;;;7.55;;
9461;SDS011;4769;42.660;23.262;2023-06-22T13:42:47;8.27;;;7.30;;
9461;SDS011;4769;42.660;23.262;2023-06-22T13:45:12;8.07;;;7.28;;
9461;SDS011;4769;42.660;23.262;2023-06-22T13:47:41;8.15;;;7.35;;
9461;SDS011;4769;42.660;23.262;2023-06-22T13:50:07;8.38;;;7.57;;
9461;SDS011;4769;42.660;23.262;2023-06-22T13:52:33;9.23;;;8.30;;
9461;SDS011;4769;42.660;23.262;2023-06-22T13:54:59;13.00;;;8.82;;
9461;SDS011;4769;42.660;23.262;2023-06-22T13:57:25;9.45;;;8.38;;
9461;SDS011;4769;42.660;23.262;2023-06-22T13:59:50;8.60;;;7.68;;
9461;SDS011;4769;42.660;23.262;2023-06-22T14:02:16;8.43;;;7.50;;
9461;SDS011;4769;42.660;23.262;2023-06-22T14:04:44;13.23;;;9.20;;
9461;SDS011;4769;42.660;23.262;2023-06-22T14:07:10;18.73;;;9.57;;
9461;SDS011;4769;42.660;23.262;2023-06-22T14:09:36;13.55;;;9.18;;
9461;SDS011;4769;42.660;23.262;2023-06-22T14:12:05;10.95;;;8.48;;
9461;SDS011;4769;42.660;23.262;2023-06-22T14:14:31;13.60;;;9.25;;
9461;SDS011;4769;42.660;23.262;2023-06-22T14:16:57;16.38;;;8.07;;
9461;SDS011;4769;42.660;23.262;2023-06-22T14:19:23;9.48;;;7.53;;
9461;SDS011;4769;42.660;23.262;2023-06-22T14:21:51;9.50;;;8.50;;
9461;SDS011;4769;42.660;23.262;2023-06-22T14:24:17;10.98;;;8.88;;
9461;SDS011;4769;42.660;23.262;2023-06-22T14:26:43;11.10;;;8.52;;
9461;SDS011;4769;42.660;23.262;2023-06-22T14:29:08;9.38;;;8.48;;
9461;SDS011;4769;42.660;23.262;2023-06-22T14:31:34;9.75;;;8.75;;
9461;SDS011;4769;42.660;23.262;2023-06-22T14:34:00;9.48;;;8.02;;
9461;SDS011;4769;42.660;23.262;2023-06-22T14:36:26;10.82;;;8.70;;
9461;SDS011;4769;42.660;23.262;2023-06-22T14:38:55;8.68;;;7.85;;
9461;SDS011;4769;42.660;23.262;2023-06-22T14:41:20;9.15;;;8.35;;
9461;SDS011;4769;42.660;23.262;2023-06-22T14:43:46;10.63;;;8.65;;
9461;SDS011;4769;42.660;23.262;2023-06-22T14:46:14;9.80;;;8.52;;
9461;SDS011;4769;42.660;23.262;2023-06-22T14:48:41;9.52;;;8.63;;
9461;SDS011;4769;42.660;23.262;2023-06-22T14:51:07;9.38;;;8.45;;
9461;SDS011;4769;42.660;23.262;2023-06-22T14:53:33;10.55;;;9.45;;
9461;SDS011;4769;42.660;23.262;2023-06-22T14:56:01;8.82;;;8.10;;
9461;SDS011;4769;42.660;23.262;2023-06-22T14:58:27;10.38;;;8.80;;
9461;SDS011;4769;42.660;23.262;2023-06-22T15:00:53;9.18;;;8.30;;
9461;SDS011;4769;42.660;23.262;2023-06-22T15:03:19;10.57;;;9.50;;
9461;SDS011;4769;42.660;23.262;2023-06-22T15:05:45;13.80;;;10.32;;
9461;SDS011;4769;42.660;23.262;2023-06-22T15:08:11;9.90;;;8.90;;
9461;SDS011;4769;42.660;23.262;2023-06-22T15:10:36;11.65;;;9.45;;
9461;SDS011;4769;42.660;23.262;2023-06-22T15:13:05;14.07;;;9.75;;
9461;SDS011;4769;42.660;23.262;2023-06-22T15:15:31;13.60;;;9.00;;
9461;SDS011;4769;42.660;23.262;2023-06-22T15:17:56;10.65;;;8.57;;
9461;SDS011;4769;42.660;23.262;2023-06-22T15:20:22;9.70;;;8.90;;
9461;SDS011;4769;42.660;23.262;2023-06-22T15:22:48;9.90;;;8.85;;
9461;SDS011;4769;42.660;23.262;2023-06-22T15:25:14;9.90;;;8.90;;
9461;SDS011;4769;42.660;23.262;2023-06-22T15:27:39;11.27;;;8.88;;
9461;SDS011;4769;42.660;23.262;2023-06-22T15:30:08;9.82;;;8.93;;
9461;SDS011;4769;42.660;23.262;2023-06-22T15:32:34;9.80;;;8.80;;
9461;SDS011;4769;42.660;23.262;2023-06-22T15:35:00;9.20;;;8.30;;
9461;SDS011;4769;42.660;23.262;2023-06-22T15:37:26;9.38;;;8.38;;
9461;SDS011;4769;42.660;23.262;2023-06-22T15:39:52;8.98;;;8.18;;
9461;SDS011;4769;42.660;23.262;2023-06-22T15:42:17;9.52;;;8.20;;
9461;SDS011;4769;42.660;23.262;2023-06-22T15:44:43;9.32;;;8.63;;
9461;SDS011;4769;42.660;23.262;2023-06-22T15:47:11;9.27;;;8.45;;
9461;SDS011;4769;42.660;23.262;2023-06-22T15:49:37;8.48;;;7.68;;
9461;SDS011;4769;42.660;23.262;2023-06-22T15:52:03;10.80;;;7.63;;
9461;SDS011;4769;42.660;23.262;2023-06-22T15:54:29;8.05;;;7.45;;
9461;SDS011;4769;42.660;23.262;2023-06-22T15:56:55;8.27;;;7.43;;
9461;SDS011;4769;42.660;23.262;2023-06-22T15:59:21;8.70;;;7.95;;
9461;SDS011;4769;42.660;23.262;2023-06-22T16:01:46;9.18;;;8.40;;
9461;SDS011;4769;42.660;23.262;2023-06-22T16:04:15;9.65;;;8.70;;
9461;SDS011;4769;42.660;23.262;2023-06-22T16:06:41;9.25;;;8.40;;
9461;SDS011;4769;42.660;23.262;2023-06-22T16:09:07;9.75;;;8.85;;
9461;SDS011;4769;42.660;23.262;2023-06-22T16:11:32;10.27;;;9.27;;
9461;SDS011;4769;42.660;23.262;2023-06-22T16:13:58;10.30;;;9.40;;
9461;SDS011;4769;42.660;23.262;2023-06-22T16:16:24;9.48;;;8.77;;
9461;SDS011;4769;42.660;23.262;2023-06-22T16:18:49;9.98;;;9.00;;